sensor_id;sensor_type;location;lat;lon;timestamp;P1;durP1;ratioP1;P2;durP2;ratioP2
17449;SDS011;8842;51.244;7.102;2023-05-10T00:00:45;13.10;;;12.40;;
17449;SDS011;8842;51.244;7.102;2023-05-10T00:05:57;13.33;;;12.63;;
17449;SDS011;8842;51.244;7.102;2023-05-10T00:11:01;13.10;;;12.40;;
17449;SDS011;8842;51.244;7.102;2023-05-10T00:16:13;13.27;;;12.57;;
17449;SDS011;8842;51.244;7.102;2023-05-10T00:21:17;13.40;;;12.70;;
17449;SDS011;8842;51.244;7.102;2023-05-10T00:26:32;13.13;;;12.43;;
17449;SDS011;8842;51.244;7.102;2023-05-10T00:31:36;12.90;;;12.20;;
17449;SDS011;8842;51.244;7.102;2023-05-10T00:36:40;13.33;;;12.63;;
17449;SDS011;8842;51.244;7.102;2023-05-10T00:41:44;13.40;;;12.70;;
17449;SDS011;8842;51.244;7.102;2023-05-10T00:46:48;13.23;;;12.53;;
17449;SDS011;8842;51.244;7.102;2023-05-10T00:51:53;13.20;;;12.50;;
17449;SDS011;8842;51.244;7.102;2023-05-10T00:56:57;13.10;;;12.40;;
17449;SDS011;8842;51.244;7.102;2023-05-10T01:02:11;13.30;;;12.60;;
17449;SDS011;8842;51.244;7.102;2023-05-10T01:07:16;13.33;;;12.63;;
17449;SDS011;8842;51.244;7.102;2023-05-10T01:17:33;13.10;;;12.40;;
17449;SDS011;8842;51.244;7.102;2023-05-10T01:33:55;13.00;;;12.30;;
17449;SDS011;8842;51.244;7.102;2023-05-10T01:39:14;12.87;;;12.17;;
17449;SDS011;8842;51.244;7.102;2023-05-10T01:44:24;13.40;;;12.70;;
17449;SDS011;8842;51.244;7.102;2023-05-10T01:49:36;13.50;;;12.80;;
17449;SDS011;8842;51.244;7.102;2023-05-10T01:54:49;13.33;;;12.63;;
17449;SDS011;8842;51.244;7.102;2023-05-10T02:00:02;13.20;;;12.50;;
17449;SDS011;8842;51.244;7.102;2023-05-10T02:05:09;13.10;;;12.40;;
17449;SDS011;8842;51.244;7.102;2023-05-10T02:10:26;12.70;;;12.00;;
17449;SDS011;8842;51.244;7.102;2023-05-10T02:15:31;12.97;;;12.27;;
17449;SDS011;8842;51.244;7.102;2023-05-10T02:20:36;12.87;;;12.17;;
17449;SDS011;8842;51.244;7.102;2023-05-10T02:25:48;12.80;;;12.10;;
17449;SDS011;8842;51.244;7.102;2023-05-10T02:30:54;12.90;;;12.20;;
17449;SDS011;8842;51.244;7.102;2023-05-10T02:36:09;13.20;;;12.50;;
17449;SDS011;8842;51.244;7.102;2023-05-10T02:41:15;13.33;;;12.63;;
17449;SDS011;8842;51.244;7.102;2023-05-10T02:46:30;13.30;;;12.60;;
17449;SDS011;8842;51.244;7.102;2023-05-10T02:51:34;13.50;;;12.80;;
17449;SDS011;8842;51.244;7.102;2023-05-10T02:56:50;13.90;;;13.20;;
17449;SDS011;8842;51.244;7.102;2023-05-10T03:07:07;14.03;;;13.33;;
17449;SDS011;8842;51.244;7.102;2023-05-10T03:12:13;14.50;;;13.70;;
17449;SDS011;8842;51.244;7.102;2023-05-10T03:17:30;14.47;;;13.70;;
17449;SDS011;8842;51.244;7.102;2023-05-10T03:22:37;14.40;;;13.50;;
17449;SDS011;8842;51.244;7.102;2023-05-10T03:27:43;14.50;;;13.70;;
17449;SDS011;8842;51.244;7.102;2023-05-10T03:32:48;14.10;;;13.40;;
17449;SDS011;8842;51.244;7.102;2023-05-10T03:37:52;14.67;;;13.87;;
17449;SDS011;8842;51.244;7.102;2023-05-10T03:42:56;14.10;;;13.40;;
17449;SDS011;8842;51.244;7.102;2023-05-10T03:48:01;14.57;;;13.77;;
17449;SDS011;8842;51.244;7.102;2023-05-10T03:53:12;14.10;;;13.40;;
17449;SDS011;8842;51.244;7.102;2023-05-10T03:58:16;14.00;;;13.30;;
17449;SDS011;8842;51.244;7.102;2023-05-10T04:03:30;15.20;;;14.20;;
17449;SDS011;8842;51.244;7.102;2023-05-10T04:08:35;14.70;;;13.90;;
17449;SDS011;8842;51.244;7.102;2023-05-10T04:13:39;15.10;;;14.30;;
17449;SDS011;8842;51.244;7.102;2023-05-10T04:18:43;14.87;;;14.07;;
17449;SDS011;8842;51.244;7.102;2023-05-10T04:23:47;15.37;;;14.57;;
17449;SDS011;8842;51.244;7.102;2023-05-10T04:28:59;14.90;;;14.10;;
17449;SDS011;8842;51.244;7.102;2023-05-10T04:34:03;15.10;;;14.30;;
17449;SDS011;8842;51.244;7.102;2023-05-10T04:39:17;15.00;;;14.20;;
17449;SDS011;8842;51.244;7.102;2023-05-10T04:44:21;15.17;;;14.37;;
17449;SDS011;8842;51.244;7.102;2023-05-10T04:49:33;16.00;;;15.10;;
17449;SDS011;8842;51.244;7.102;2023-05-10T04:59:50;15.83;;;14.97;;
17449;SDS011;8842;51.244;7.102;2023-05-10T05:10:09;15.23;;;14.43;;
17449;SDS011;8842;51.244;7.102;2023-05-10T05:15:13;15.13;;;14.33;;
17449;SDS011;8842;51.244;7.102;2023-05-10T05:20:33;15.40;;;14.60;;
17449;SDS011;8842;51.244;7.102;2023-05-10T05:25:37;14.70;;;13.90;;
17449;SDS011;8842;51.244;7.102;2023-05-10T05:30:41;15.03;;;14.23;;
17449;SDS011;8842;51.244;7.102;2023-05-10T05:35:45;15.63;;;14.83;;
17449;SDS011;8842;51.244;7.102;2023-05-10T05:40:51;14.67;;;13.87;;
17449;SDS011;8842;51.244;7.102;2023-05-10T05:45:55;15.17;;;14.37;;
17449;SDS011;8842;51.244;7.102;2023-05-10T05:51:00;14.77;;;13.97;;
17449;SDS011;8842;51.244;7.102;2023-05-10T05:56:14;15.50;;;14.70;;
17449;SDS011;8842;51.244;7.102;2023-05-10T06:01:28;15.50;;;14.70;;
17449;SDS011;8842;51.244;7.102;2023-05-10T06:06:32;15.30;;;14.50;;
17449;SDS011;8842;51.244;7.102;2023-05-10T06:11:46;15.10;;;14.30;;
17449;SDS011;8842;51.244;7.102;2023-05-10T06:16:50;14.80;;;14.00;;
17449;SDS011;8842;51.244;7.102;2023-05-10T06:21:54;15.40;;;14.60;;
17449;SDS011;8842;51.244;7.102;2023-05-10T06:26:58;15.03;;;14.23;;
17449;SDS011;8842;51.244;7.102;2023-05-10T06:32:03;15.10;;;14.30;;
17449;SDS011;8842;51.244;7.102;2023-05-10T06:37:20;15.00;;;14.20;;
17449;SDS011;8842;51.244;7.102;2023-05-10T06:42:24;14.70;;;13.90;;
17449;SDS011;8842;51.244;7.102;2023-05-10T06:47:36;14.70;;;13.90;;
17449;SDS011;8842;51.244;7.102;2023-05-10T06:52:40;14.43;;;13.67;;
17449;SDS011;8842;51.244;7.102;2023-05-10T06:57:45;14.77;;;13.97;;
17449;SDS011;8842;51.244;7.102;2023-05-10T07:02:50;15.00;;;14.20;;
17449;SDS011;8842;51.244;7.102;2023-05-10T07:07:54;15.20;;;14.40;;
17449;SDS011;8842;51.244;7.102;2023-05-10T07:12:58;14.53;;;13.73;;
17449;SDS011;8842;51.244;7.102;2023-05-10T07:18:03;14.23;;;13.53;;
17449;SDS011;8842;51.244;7.102;2023-05-10T07:23:09;14.73;;;13.93;;
17449;SDS011;8842;51.244;7.102;2023-05-10T07:28:23;14.70;;;13.90;;
17449;SDS011;8842;51.244;7.102;2023-05-10T07:33:27;14.70;;;13.90;;
17449;SDS011;8842;51.244;7.102;2023-05-10T07:38:31;14.67;;;13.93;;
17449;SDS011;8842;51.244;7.102;2023-05-10T07:43:43;14.70;;;13.90;;
17449;SDS011;8842;51.244;7.102;2023-05-10T07:48:47;14.40;;;13.70;;
17449;SDS011;8842;51.244;7.102;2023-05-10T07:53:51;14.43;;;13.73;;
17449;SDS011;8842;51.244;7.102;2023-05-10T07:58:55;14.60;;;13.90;;
17449;SDS011;8842;51.244;7.102;2023-05-10T08:03:59;14.30;;;13.60;;
17449;SDS011;8842;51.244;7.102;2023-05-10T08:09:04;14.10;;;13.40;;
17449;SDS011;8842;51.244;7.102;2023-05-10T08:14:22;14.13;;;13.43;;
17449;SDS011;8842;51.244;7.102;2023-05-10T08:19:26;14.33;;;13.63;;
17449;SDS011;8842;51.244;7.102;2023-05-10T08:24:37;13.60;;;12.90;;
17449;SDS011;8842;51.244;7.102;2023-05-10T08:29:42;14.20;;;13.50;;
17449;SDS011;8842;51.244;7.102;2023-05-10T08:34:46;14.30;;;13.60;;
17449;SDS011;8842;51.244;7.102;2023-05-10T08:39:57;15.00;;;14.20;;
17449;SDS011;8842;51.244;7.102;2023-05-10T08:45:02;14.43;;;13.73;;
17449;SDS011;8842;51.244;7.102;2023-05-10T08:50:17;14.80;;;14.03;;
17449;SDS011;8842;51.244;7.102;2023-05-10T09:00:37;15.30;;;14.50;;
17449;SDS011;8842;51.244;7.102;2023-05-10T09:05:42;14.90;;;14.10;;
17449;SDS011;8842;51.244;7.102;2023-05-10T09:10:57;14.10;;;13.40;;
17449;SDS011;8842;51.244;7.102;2023-05-10T09:16:02;14.33;;;13.63;;
17449;SDS011;8842;51.244;7.102;2023-05-10T09:21:15;14.53;;;13.83;;
17449;SDS011;8842;51.244;7.102;2023-05-10T09:26:22;14.97;;;14.17;;
17449;SDS011;8842;51.244;7.102;2023-05-10T09:31:47;14.43;;;13.73;;
17449;SDS011;8842;51.244;7.102;2023-05-10T09:36:55;13.53;;;12.83;;
17449;SDS011;8842;51.244;7.102;2023-05-10T09:42:01;13.90;;;13.20;;
17449;SDS011;8842;51.244;7.102;2023-05-10T09:47:06;13.93;;;13.23;;
17449;SDS011;8842;51.244;7.102;2023-05-10T09:52:18;15.87;;;15.07;;
17449;SDS011;8842;51.244;7.102;2023-05-10T09:57:23;14.97;;;14.17;;
17449;SDS011;8842;51.244;7.102;2023-05-10T10:02:28;14.60;;;13.80;;
17449;SDS011;8842;51.244;7.102;2023-05-10T10:07:32;14.60;;;13.80;;
17449;SDS011;8842;51.244;7.102;2023-05-10T10:12:46;14.23;;;13.43;;
17449;SDS011;8842;51.244;7.102;2023-05-10T10:17:51;14.80;;;14.00;;
17449;SDS011;8842;51.244;7.102;2023-05-10T10:22:55;14.20;;;13.50;;
17449;SDS011;8842;51.244;7.102;2023-05-10T10:28:03;14.00;;;13.30;;
17449;SDS011;8842;51.244;7.102;2023-05-10T10:33:38;13.50;;;12.80;;
17449;SDS011;8842;51.244;7.102;2023-05-10T10:38:55;14.50;;;13.70;;
17449;SDS011;8842;51.244;7.102;2023-05-10T10:49:48;13.13;;;12.43;;
17449;SDS011;8842;51.244;7.102;2023-05-10T10:54:57;14.00;;;13.23;;
17449;SDS011;8842;51.244;7.102;2023-05-10T11:00:28;14.07;;;13.37;;
17449;SDS011;8842;51.244;7.102;2023-05-10T11:10:52;13.93;;;13.23;;
17449;SDS011;8842;51.244;7.102;2023-05-10T11:16:11;13.90;;;13.10;;
17449;SDS011;8842;51.244;7.102;2023-05-10T11:21:26;12.77;;;12.10;;
17449;SDS011;8842;51.244;7.102;2023-05-10T11:26:32;12.70;;;12.00;;
17449;SDS011;8842;51.244;7.102;2023-05-10T11:31:44;13.53;;;12.70;;
17449;SDS011;8842;51.244;7.102;2023-05-10T11:36:51;12.27;;;11.67;;
17449;SDS011;8842;51.244;7.102;2023-05-10T11:41:56;11.57;;;10.97;;
17449;SDS011;8842;51.244;7.102;2023-05-10T11:47:01;10.60;;;10.10;;
17449;SDS011;8842;51.244;7.102;2023-05-10T11:52:05;10.90;;;10.30;;
17449;SDS011;8842;51.244;7.102;2023-05-10T11:57:20;11.47;;;10.63;;
17449;SDS011;8842;51.244;7.102;2023-05-10T12:02:26;10.10;;;9.60;;
17449;SDS011;8842;51.244;7.102;2023-05-10T12:07:31;11.27;;;10.67;;
17449;SDS011;8842;51.244;7.102;2023-05-10T12:12:44;11.10;;;10.50;;
17449;SDS011;8842;51.244;7.102;2023-05-10T12:17:50;11.17;;;10.40;;
17449;SDS011;8842;51.244;7.102;2023-05-10T12:23:04;11.90;;;11.20;;
17449;SDS011;8842;51.244;7.102;2023-05-10T12:28:10;11.00;;;10.40;;
17449;SDS011;8842;51.244;7.102;2023-05-10T12:33:24;11.07;;;10.47;;
17449;SDS011;8842;51.244;7.102;2023-05-10T12:38:40;11.60;;;11.00;;
17449;SDS011;8842;51.244;7.102;2023-05-10T12:43:45;10.47;;;9.93;;
17449;SDS011;8842;51.244;7.102;2023-05-10T12:48:57;10.93;;;10.33;;
17449;SDS011;8842;51.244;7.102;2023-05-10T12:54:01;11.37;;;10.67;;
17449;SDS011;8842;51.244;7.102;2023-05-10T12:59:16;10.30;;;9.80;;
17449;SDS011;8842;51.244;7.102;2023-05-10T13:04:20;11.27;;;10.33;;
17449;SDS011;8842;51.244;7.102;2023-05-10T13:09:24;9.73;;;9.03;;
17449;SDS011;8842;51.244;7.102;2023-05-10T13:14:29;10.07;;;9.47;;
17449;SDS011;8842;51.244;7.102;2023-05-10T13:19:42;9.73;;;9.23;;
17449;SDS011;8842;51.244;7.102;2023-05-10T13:24:46;8.93;;;8.40;;
17449;SDS011;8842;51.244;7.102;2023-05-10T13:30:07;8.90;;;8.40;;
17449;SDS011;8842;51.244;7.102;2023-05-10T13:35:13;10.23;;;9.63;;
17449;SDS011;8842;51.244;7.102;2023-05-10T13:40:28;9.43;;;8.93;;
17449;SDS011;8842;51.244;7.102;2023-05-10T13:45:32;10.30;;;9.70;;
17449;SDS011;8842;51.244;7.102;2023-05-10T13:50:36;11.00;;;10.00;;
17449;SDS011;8842;51.244;7.102;2023-05-10T13:55:41;11.17;;;10.57;;
17449;SDS011;8842;51.244;7.102;2023-05-10T14:05:57;11.77;;;11.17;;
17449;SDS011;8842;51.244;7.102;2023-05-10T14:11:01;10.87;;;10.27;;
17449;SDS011;8842;51.244;7.102;2023-05-10T14:16:06;10.23;;;9.70;;
17449;SDS011;8842;51.244;7.102;2023-05-10T14:21:20;10.87;;;10.27;;
17449;SDS011;8842;51.244;7.102;2023-05-10T14:26:24;10.33;;;9.83;;
17449;SDS011;8842;51.244;7.102;2023-05-10T14:31:29;11.40;;;10.73;;
17449;SDS011;8842;51.244;7.102;2023-05-10T14:36:34;11.73;;;11.03;;
17449;SDS011;8842;51.244;7.102;2023-05-10T14:41:38;11.07;;;10.30;;
17449;SDS011;8842;51.244;7.102;2023-05-10T14:46:43;11.00;;;10.40;;
17449;SDS011;8842;51.244;7.102;2023-05-10T14:51:47;10.97;;;10.27;;
17449;SDS011;8842;51.244;7.102;2023-05-10T14:56:51;10.50;;;10.00;;
17449;SDS011;8842;51.244;7.102;2023-05-10T15:01:55;11.63;;;11.03;;
17449;SDS011;8842;51.244;7.102;2023-05-10T15:12:13;10.83;;;10.23;;
17449;SDS011;8842;51.244;7.102;2023-05-10T15:17:17;9.73;;;9.20;;
17449;SDS011;8842;51.244;7.102;2023-05-10T15:22:21;10.10;;;9.60;;
17449;SDS011;8842;51.244;7.102;2023-05-10T15:27:25;10.53;;;10.00;;
17449;SDS011;8842;51.244;7.102;2023-05-10T15:32:29;11.03;;;10.43;;
17449;SDS011;8842;51.244;7.102;2023-05-10T15:37:33;10.97;;;10.37;;
17449;SDS011;8842;51.244;7.102;2023-05-10T15:42:38;10.10;;;9.60;;
17449;SDS011;8842;51.244;7.102;2023-05-10T15:47:42;10.80;;;10.20;;
17449;SDS011;8842;51.244;7.102;2023-05-10T15:52:46;11.40;;;10.70;;
17449;SDS011;8842;51.244;7.102;2023-05-10T15:57:51;10.57;;;9.93;;
17449;SDS011;8842;51.244;7.102;2023-05-10T16:02:55;10.83;;;10.23;;
17449;SDS011;8842;51.244;7.102;2023-05-10T16:07:59;9.97;;;9.47;;
17449;SDS011;8842;51.244;7.102;2023-05-10T16:13:11;9.40;;;8.90;;
17449;SDS011;8842;51.244;7.102;2023-05-10T16:18:16;10.20;;;9.70;;
17449;SDS011;8842;51.244;7.102;2023-05-10T16:23:20;10.20;;;9.70;;
17449;SDS011;8842;51.244;7.102;2023-05-10T16:28:25;10.50;;;10.00;;
17449;SDS011;8842;51.244;7.102;2023-05-10T16:33:29;10.03;;;9.53;;
17449;SDS011;8842;51.244;7.102;2023-05-10T16:38:33;10.00;;;9.50;;
17449;SDS011;8842;51.244;7.102;2023-05-10T16:43:37;10.00;;;9.50;;
17449;SDS011;8842;51.244;7.102;2023-05-10T16:48:41;10.00;;;9.50;;
17449;SDS011;8842;51.244;7.102;2023-05-10T16:53:45;9.00;;;8.50;;
17449;SDS011;8842;51.244;7.102;2023-05-10T16:58:49;8.20;;;7.80;;
17449;SDS011;8842;51.244;7.102;2023-05-10T17:03:53;8.73;;;8.33;;
17449;SDS011;8842;51.244;7.102;2023-05-10T17:08:57;8.83;;;8.43;;
17449;SDS011;8842;51.244;7.102;2023-05-10T17:14:09;8.83;;;8.33;;
17449;SDS011;8842;51.244;7.102;2023-05-10T17:19:13;10.33;;;9.83;;
17449;SDS011;8842;51.244;7.102;2023-05-10T17:24:17;9.93;;;9.43;;
17449;SDS011;8842;51.244;7.102;2023-05-10T17:29:21;9.40;;;8.90;;
17449;SDS011;8842;51.244;7.102;2023-05-10T17:34:25;9.43;;;8.93;;
17449;SDS011;8842;51.244;7.102;2023-05-10T17:39:30;9.00;;;8.60;;
17449;SDS011;8842;51.244;7.102;2023-05-10T17:44:34;8.97;;;8.57;;
17449;SDS011;8842;51.244;7.102;2023-05-10T17:49:38;9.80;;;9.30;;
17449;SDS011;8842;51.244;7.102;2023-05-10T17:54:42;9.80;;;9.30;;
17449;SDS011;8842;51.244;7.102;2023-05-10T17:59:46;11.90;;;11.30;;
17449;SDS011;8842;51.244;7.102;2023-05-10T18:04:50;13.40;;;12.70;;
17449;SDS011;8842;51.244;7.102;2023-05-10T18:09:54;13.07;;;12.37;;
17449;SDS011;8842;51.244;7.102;2023-05-10T18:14:59;13.20;;;12.50;;
17449;SDS011;8842;51.244;7.102;2023-05-10T18:20:12;13.70;;;13.00;;
17449;SDS011;8842;51.244;7.102;2023-05-10T18:25:16;13.70;;;13.00;;
17449;SDS011;8842;51.244;7.102;2023-05-10T18:30:30;13.53;;;12.83;;
17449;SDS011;8842;51.244;7.102;2023-05-10T18:35:34;13.57;;;12.87;;
17449;SDS011;8842;51.244;7.102;2023-05-10T18:40:39;13.43;;;12.73;;
17449;SDS011;8842;51.244;7.102;2023-05-10T18:45:44;13.87;;;13.17;;
17449;SDS011;8842;51.244;7.102;2023-05-10T18:50:48;13.90;;;13.20;;
17449;SDS011;8842;51.244;7.102;2023-05-10T18:55:55;13.47;;;12.77;;
17449;SDS011;8842;51.244;7.102;2023-05-10T19:01:00;13.40;;;12.70;;
17449;SDS011;8842;51.244;7.102;2023-05-10T19:06:04;13.10;;;12.40;;
17449;SDS011;8842;51.244;7.102;2023-05-10T19:11:08;13.60;;;12.90;;
17449;SDS011;8842;51.244;7.102;2023-05-10T19:16:23;13.60;;;12.90;;
17449;SDS011;8842;51.244;7.102;2023-05-10T19:21:28;13.30;;;12.60;;
17449;SDS011;8842;51.244;7.102;2023-05-10T19:26:39;13.10;;;12.40;;
17449;SDS011;8842;51.244;7.102;2023-05-10T19:31:43;13.50;;;12.80;;
17449;SDS011;8842;51.244;7.102;2023-05-10T19:36:48;12.90;;;12.20;;
17449;SDS011;8842;51.244;7.102;2023-05-10T19:41:52;12.80;;;12.10;;
17449;SDS011;8842;51.244;7.102;2023-05-10T19:46:56;12.90;;;12.20;;
17449;SDS011;8842;51.244;7.102;2023-05-10T19:52:08;12.40;;;11.80;;
17449;SDS011;8842;51.244;7.102;2023-05-10T19:57:13;12.40;;;11.80;;
17449;SDS011;8842;51.244;7.102;2023-05-10T20:02:28;12.20;;;11.60;;
17449;SDS011;8842;51.244;7.102;2023-05-10T20:07:32;12.30;;;11.70;;
17449;SDS011;8842;51.244;7.102;2023-05-10T20:12:47;12.80;;;12.10;;
17449;SDS011;8842;51.244;7.102;2023-05-10T20:17:53;12.83;;;12.13;;
17449;SDS011;8842;51.244;7.102;2023-05-10T20:22:57;12.40;;;11.80;;
17449;SDS011;8842;51.244;7.102;2023-05-10T20:28:09;12.97;;;12.27;;
17449;SDS011;8842;51.244;7.102;2023-05-10T20:33:14;12.90;;;12.20;;
17449;SDS011;8842;51.244;7.102;2023-05-10T20:38:19;12.67;;;12.03;;
17449;SDS011;8842;51.244;7.102;2023-05-10T20:43:30;12.70;;;12.00;;
17449;SDS011;8842;51.244;7.102;2023-05-10T20:48:34;12.40;;;11.80;;
17449;SDS011;8842;51.244;7.102;2023-05-10T20:53:47;11.83;;;11.23;;
17449;SDS011;8842;51.244;7.102;2023-05-10T20:58:51;12.30;;;11.70;;
17449;SDS011;8842;51.244;7.102;2023-05-10T21:03:55;12.00;;;11.40;;
17449;SDS011;8842;51.244;7.102;2023-05-10T21:08:59;11.70;;;11.10;;
17449;SDS011;8842;51.244;7.102;2023-05-10T21:14:11;12.23;;;11.63;;
17449;SDS011;8842;51.244;7.102;2023-05-10T21:19:15;12.70;;;12.00;;
17449;SDS011;8842;51.244;7.102;2023-05-10T21:24:27;12.40;;;11.80;;
17449;SDS011;8842;51.244;7.102;2023-05-10T21:29:31;12.20;;;11.60;;
17449;SDS011;8842;51.244;7.102;2023-05-10T21:34:43;12.00;;;11.40;;
17449;SDS011;8842;51.244;7.102;2023-05-10T21:39:47;12.10;;;11.50;;
17449;SDS011;8842;51.244;7.102;2023-05-10T21:44:51;12.53;;;11.93;;
17449;SDS011;8842;51.244;7.102;2023-05-10T21:49:56;12.20;;;11.60;;
17449;SDS011;8842;51.244;7.102;2023-05-10T21:55:00;12.80;;;12.03;;
17449;SDS011;8842;51.244;7.102;2023-05-10T22:00:06;12.20;;;11.60;;
17449;SDS011;8842;51.244;7.102;2023-05-10T22:05:21;12.30;;;11.70;;
17449;SDS011;8842;51.244;7.102;2023-05-10T22:10:36;12.30;;;11.70;;
17449;SDS011;8842;51.244;7.102;2023-05-10T22:15:40;12.70;;;12.00;;
17449;SDS011;8842;51.244;7.102;2023-05-10T22:20:44;13.00;;;12.30;;
17449;SDS011;8842;51.244;7.102;2023-05-10T22:25:49;12.30;;;11.70;;
17449;SDS011;8842;51.244;7.102;2023-05-10T22:30:53;12.03;;;11.43;;
17449;SDS011;8842;51.244;7.102;2023-05-10T22:36:17;12.10;;;11.50;;
17449;SDS011;8842;51.244;7.102;2023-05-10T22:41:21;12.67;;;11.97;;
17449;SDS011;8842;51.244;7.102;2023-05-10T22:46:25;12.27;;;11.67;;
17449;SDS011;8842;51.244;7.102;2023-05-10T22:51:37;12.07;;;11.47;;
17449;SDS011;8842;51.244;7.102;2023-05-10T22:56:41;12.90;;;12.20;;
17449;SDS011;8842;51.244;7.102;2023-05-10T23:01:45;12.70;;;12.00;;
17449;SDS011;8842;51.244;7.102;2023-05-10T23:06:50;12.93;;;12.23;;
17449;SDS011;8842;51.244;7.102;2023-05-10T23:17:06;12.53;;;11.90;;
17449;SDS011;8842;51.244;7.102;2023-05-10T23:22:10;12.10;;;11.50;;
17449;SDS011;8842;51.244;7.102;2023-05-10T23:27:15;12.30;;;11.70;;
17449;SDS011;8842;51.244;7.102;2023-05-10T23:32:19;12.03;;;11.43;;
17449;SDS011;8842;51.244;7.102;2023-05-10T23:37:23;12.33;;;11.73;;
17449;SDS011;8842;51.244;7.102;2023-05-10T23:42:37;13.03;;;12.33;;
17449;SDS011;8842;51.244;7.102;2023-05-10T23:47:41;12.30;;;11.70;;
17449;SDS011;8842;51.244;7.102;2023-05-10T23:52:45;12.30;;;11.70;;
17449;SDS011;8842;51.244;7.102;2023-05-10T23:57:49;12.60;;;11.90;;
